createdAt,value
2022-07-29T00:00:47.405Z,0.00
2022-07-29T00:01:47.399Z,0.00
2022-07-29T00:02:47.443Z,0.00
2022-07-29T00:03:47.485Z,0.00
2022-07-29T00:04:47.347Z,0.00
2022-07-29T00:05:47.330Z,0.00
2022-07-29T00:06:47.319Z,0.00
2022-07-29T00:07:47.309Z,0.00
2022-07-29T00:08:47.284Z,0.00
2022-07-29T00:09:52.119Z,0.00
2022-07-29T00:10:47.264Z,0.00
2022-07-29T00:11:47.246Z,0.00
2022-07-29T00:12:47.230Z,0.00
2022-07-29T00:13:50.868Z,0.00
2022-07-29T00:14:47.201Z,0.00
2022-07-29T00:15:47.184Z,0.00
2022-07-29T00:16:47.302Z,0.00
2022-07-29T00:17:47.161Z,0.00
2022-07-29T00:18:47.137Z,0.00
2022-07-29T00:19:47.121Z,0.00
2022-07-29T00:20:47.113Z,0.00
2022-07-29T00:21:47.094Z,0.00
2022-07-29T00:22:47.083Z,0.00
2022-07-29T00:23:47.066Z,0.00
2022-07-29T00:24:47.048Z,0.00
2022-07-29T00:25:47.033Z,0.00
2022-07-29T00:26:47.017Z,0.00
2022-07-29T00:27:47.004Z,0.00
2022-07-29T00:28:46.987Z,0.00
2022-07-29T00:29:46.977Z,0.00
2022-07-29T00:30:47.022Z,0.00
2022-07-29T00:31:47.091Z,0.00
2022-07-29T00:32:46.928Z,0.00
2022-07-29T00:33:46.914Z,0.00
2022-07-29T00:34:46.898Z,0.00
2022-07-29T00:35:46.886Z,0.00
2022-07-29T00:36:46.870Z,0.00
2022-07-29T00:37:46.852Z,0.00
2022-07-29T00:38:46.834Z,0.00
2022-07-29T00:39:46.820Z,0.00
2022-07-29T00:40:46.806Z,0.00
2022-07-29T00:41:46.792Z,0.00
2022-07-29T00:42:46.774Z,0.00
2022-07-29T00:43:46.762Z,0.00
2022-07-29T00:44:46.751Z,0.00
2022-07-29T00:45:46.738Z,0.00
2022-07-29T00:46:46.757Z,0.00
2022-07-29T00:47:46.706Z,0.00
2022-07-29T00:48:46.759Z,0.00
2022-07-29T00:49:46.674Z,0.00
2022-07-29T00:50:46.656Z,0.00
2022-07-29T00:51:46.640Z,0.00
2022-07-29T00:52:46.621Z,0.00
2022-07-29T00:53:46.616Z,0.00
2022-07-29T00:54:46.602Z,0.00
2022-07-29T00:55:46.585Z,0.00
2022-07-29T00:56:46.568Z,0.00
2022-07-29T00:57:46.554Z,0.00
2022-07-29T00:58:46.537Z,0.00
2022-07-29T00:59:46.520Z,0.00
2022-07-29T01:00:46.563Z,0.00
2022-07-29T01:01:46.608Z,0.00
2022-07-29T01:02:46.471Z,0.00
2022-07-29T01:03:46.459Z,0.00
2022-07-29T01:04:46.446Z,0.00
2022-07-29T01:05:49.642Z,0.00
2022-07-29T01:06:46.413Z,0.00
2022-07-29T01:07:46.395Z,0.00
2022-07-29T01:08:46.377Z,0.00
2022-07-29T01:09:47.237Z,0.00
2022-07-29T01:10:46.349Z,0.00
2022-07-29T01:11:46.335Z,0.00
2022-07-29T01:12:46.317Z,0.00
2022-07-29T01:13:46.305Z,0.00
2022-07-29T01:14:46.288Z,0.00
2022-07-29T01:15:49.298Z,0.00
2022-07-29T01:16:46.344Z,0.00
2022-07-29T01:17:53.267Z,0.00
2022-07-29T01:18:46.234Z,0.00
2022-07-29T01:19:46.219Z,0.00
2022-07-29T01:20:46.201Z,0.00
2022-07-29T01:21:46.191Z,0.00
2022-07-29T01:22:46.166Z,0.00
2022-07-29T01:23:46.148Z,0.00
2022-07-29T01:24:46.132Z,0.00
2022-07-29T01:25:46.121Z,0.00
2022-07-29T01:26:46.107Z,0.00
2022-07-29T01:27:46.091Z,0.00
2022-07-29T01:28:46.078Z,0.00
2022-07-29T01:29:46.062Z,0.00
2022-07-29T01:30:46.047Z,0.00
2022-07-29T01:32:00.686Z,0.00
2022-07-29T01:32:46.015Z,0.00
2022-07-29T01:33:46.003Z,0.00
2022-07-29T01:34:45.985Z,0.00
2022-07-29T01:35:45.973Z,0.00
2022-07-29T01:36:45.947Z,0.00
2022-07-29T01:37:45.933Z,0.00
2022-07-29T01:38:45.921Z,0.00
2022-07-29T01:39:45.905Z,0.00
2022-07-29T01:40:45.886Z,0.00
2022-07-29T01:41:45.875Z,0.00
2022-07-29T01:42:45.860Z,0.00
2022-07-29T01:43:45.846Z,0.00
2022-07-29T01:44:45.831Z,0.00
2022-07-29T01:45:45.810Z,0.00
2022-07-29T01:46:45.813Z,0.00
2022-07-29T01:47:45.780Z,0.00
2022-07-29T01:48:45.838Z,0.00
2022-07-29T01:49:45.755Z,0.00
2022-07-29T01:50:45.733Z,0.00
2022-07-29T01:51:45.717Z,0.00
2022-07-29T01:52:45.704Z,0.00
2022-07-29T01:53:45.686Z,0.00
2022-07-29T01:54:46.653Z,0.00
2022-07-29T01:55:45.657Z,0.00
2022-07-29T01:56:45.640Z,0.00
2022-07-29T01:57:45.626Z,0.00
2022-07-29T01:58:45.613Z,0.00
2022-07-29T01:59:45.595Z,0.00
2022-07-29T02:00:45.581Z,0.00
2022-07-29T02:01:45.625Z,0.00
2022-07-29T02:02:45.553Z,0.00
2022-07-29T02:03:45.540Z,0.00
2022-07-29T02:04:45.554Z,0.00
2022-07-29T02:05:45.502Z,0.00
2022-07-29T02:06:45.486Z,0.00
2022-07-29T02:07:45.469Z,0.00
2022-07-29T02:08:45.453Z,0.00
2022-07-29T02:09:45.444Z,0.00
2022-07-29T02:10:45.428Z,0.00
2022-07-29T02:11:45.414Z,0.00
2022-07-29T02:12:50.893Z,0.00
2022-07-29T02:13:45.378Z,0.00
2022-07-29T02:14:45.366Z,0.00
2022-07-29T02:15:45.449Z,0.00
2022-07-29T02:16:45.333Z,0.00
2022-07-29T02:17:45.316Z,0.00
2022-07-29T02:18:45.300Z,0.00
2022-07-29T02:19:45.289Z,0.00
2022-07-29T02:20:45.268Z,0.00
2022-07-29T02:21:45.255Z,0.00
2022-07-29T02:22:45.235Z,0.00
2022-07-29T02:23:51.027Z,0.00
2022-07-29T02:24:45.208Z,0.00
2022-07-29T02:25:45.196Z,0.00
2022-07-29T02:26:45.174Z,0.00
2022-07-29T02:27:45.165Z,0.00
2022-07-29T02:28:45.147Z,0.00
2022-07-29T02:29:45.137Z,0.00
2022-07-29T02:30:45.165Z,0.00
2022-07-29T02:31:45.117Z,0.00
2022-07-29T02:32:45.081Z,0.00
2022-07-29T02:33:45.067Z,0.00
2022-07-29T02:34:45.049Z,0.00
2022-07-29T02:35:45.037Z,0.00
2022-07-29T02:36:45.020Z,0.00
2022-07-29T02:37:45.006Z,0.00
2022-07-29T02:38:44.992Z,0.00
2022-07-29T02:39:44.984Z,0.00
2022-07-29T02:40:44.960Z,0.00
2022-07-29T02:41:44.948Z,0.00
2022-07-29T02:42:44.928Z,0.00
2022-07-29T02:43:44.914Z,0.00
2022-07-29T02:44:44.898Z,0.00
2022-07-29T02:45:44.879Z,0.00
2022-07-29T02:46:44.934Z,0.00
2022-07-29T02:47:44.854Z,0.00
2022-07-29T02:48:44.884Z,0.00
2022-07-29T02:49:44.822Z,0.00
2022-07-29T02:50:44.803Z,0.00
2022-07-29T02:51:45.172Z,0.00
2022-07-29T02:52:44.771Z,0.00
2022-07-29T02:53:44.755Z,0.00
2022-07-29T02:54:44.737Z,0.00
2022-07-29T02:55:44.726Z,0.00
2022-07-29T02:56:44.709Z,0.00
2022-07-29T02:57:54.521Z,0.00
2022-07-29T02:58:44.677Z,0.00
2022-07-29T02:59:44.662Z,0.00
2022-07-29T03:00:44.645Z,0.00
2022-07-29T03:01:44.778Z,0.00
2022-07-29T03:02:44.611Z,0.00
2022-07-29T03:03:44.603Z,0.00
2022-07-29T03:04:44.630Z,0.00
2022-07-29T03:05:44.570Z,0.00
2022-07-29T03:06:44.549Z,0.00
2022-07-29T03:07:44.539Z,0.00
2022-07-29T03:08:44.523Z,0.00
2022-07-29T03:09:44.507Z,0.00
2022-07-29T03:10:44.485Z,0.00
2022-07-29T03:11:49.791Z,0.00
2022-07-29T03:12:44.456Z,0.00
2022-07-29T03:13:44.442Z,0.00
2022-07-29T03:14:44.425Z,0.00
2022-07-29T03:15:44.442Z,0.00
2022-07-29T03:16:44.446Z,0.00
2022-07-29T03:17:44.384Z,0.00
2022-07-29T03:18:44.362Z,0.00
2022-07-29T03:19:44.350Z,4.00
2022-07-29T03:20:44.333Z,4.00
2022-07-29T03:21:44.311Z,0.00
2022-07-29T03:22:44.321Z,4.00
2022-07-29T03:23:44.281Z,4.00
2022-07-29T03:24:44.265Z,4.00
2022-07-29T03:25:44.251Z,4.00
2022-07-29T03:26:44.235Z,8.00
2022-07-29T03:27:44.223Z,4.00
2022-07-29T03:28:44.207Z,8.00
2022-07-29T03:29:49.897Z,8.00
2022-07-29T03:30:44.595Z,8.00
2022-07-29T03:31:44.158Z,12.00
2022-07-29T03:32:44.140Z,12.00
2022-07-29T03:33:44.127Z,12.00
2022-07-29T03:34:44.119Z,16.00
2022-07-29T03:35:44.093Z,16.00
2022-07-29T03:36:44.080Z,16.00
2022-07-29T03:37:44.058Z,16.00
2022-07-29T03:38:44.043Z,24.00
2022-07-29T03:39:44.028Z,24.00
2022-07-29T03:40:44.011Z,24.00
2022-07-29T03:41:43.998Z,28.00
2022-07-29T03:42:44.029Z,28.00
2022-07-29T03:43:49.615Z,32.00
2022-07-29T03:44:43.947Z,36.00
2022-07-29T03:45:43.936Z,36.00
2022-07-29T03:46:43.983Z,36.00
2022-07-29T03:47:51.611Z,40.00
2022-07-29T03:48:43.942Z,40.00
2022-07-29T03:49:43.878Z,40.00
2022-07-29T03:50:43.860Z,44.00
2022-07-29T03:51:43.842Z,44.00
2022-07-29T03:52:45.387Z,48.00
2022-07-29T03:53:43.810Z,48.00
2022-07-29T03:54:43.795Z,48.00
2022-07-29T03:55:43.777Z,52.00
2022-07-29T03:56:43.762Z,48.00
2022-07-29T03:57:43.744Z,48.00
2022-07-29T03:58:43.728Z,52.00
2022-07-29T03:59:43.714Z,56.00
2022-07-29T04:00:43.701Z,56.00
2022-07-29T04:01:43.741Z,60.00
2022-07-29T04:02:43.667Z,64.00
2022-07-29T04:03:43.687Z,68.00
2022-07-29T04:04:43.632Z,68.00
2022-07-29T04:05:43.617Z,76.00
2022-07-29T04:06:43.612Z,76.00
2022-07-29T04:07:43.586Z,76.00
2022-07-29T04:08:43.575Z,80.00
2022-07-29T04:09:43.558Z,84.00
2022-07-29T04:10:43.536Z,92.00
2022-07-29T04:11:57.080Z,96.00
2022-07-29T04:12:43.505Z,100.00
2022-07-29T04:13:43.490Z,108.00
2022-07-29T04:14:43.475Z,116.00
2022-07-29T04:15:43.561Z,120.00
2022-07-29T04:16:43.445Z,128.00
2022-07-29T04:17:43.430Z,132.00
2022-07-29T04:18:43.410Z,140.00
2022-07-29T04:19:43.397Z,148.00
2022-07-29T04:20:43.466Z,156.00
2022-07-29T04:21:43.362Z,168.00
2022-07-29T04:22:43.348Z,184.00
2022-07-29T04:23:45.884Z,200.00
2022-07-29T04:24:44.531Z,216.00
2022-07-29T04:25:43.304Z,228.00
2022-07-29T04:26:43.282Z,236.00
2022-07-29T04:27:43.275Z,252.00
2022-07-29T04:28:43.254Z,260.00
2022-07-29T04:29:56.983Z,272.00
2022-07-29T04:30:43.259Z,284.00
2022-07-29T04:31:43.377Z,296.00
2022-07-29T04:32:43.193Z,316.00
2022-07-29T04:33:43.176Z,328.00
2022-07-29T04:34:43.160Z,344.00
2022-07-29T04:35:49.994Z,364.00
2022-07-29T04:36:43.131Z,384.00
2022-07-29T04:37:43.122Z,408.00
2022-07-29T04:38:43.097Z,432.00
2022-07-29T04:39:43.077Z,456.00
2022-07-29T04:40:43.073Z,476.00
2022-07-29T04:41:43.051Z,496.00
2022-07-29T04:42:46.746Z,520.00
2022-07-29T04:43:43.016Z,540.00
2022-07-29T04:44:43.350Z,560.00
2022-07-29T04:45:43.009Z,576.00
2022-07-29T04:46:43.052Z,600.00
2022-07-29T04:47:42.956Z,632.00
2022-07-29T04:48:42.997Z,672.00
2022-07-29T04:49:42.921Z,720.00
2022-07-29T04:50:42.907Z,772.00
2022-07-29T04:51:42.894Z,824.00
2022-07-29T04:52:42.875Z,872.00
2022-07-29T04:53:42.862Z,916.00
2022-07-29T04:54:42.841Z,960.00
2022-07-29T04:55:42.828Z,992.00
2022-07-29T04:56:42.811Z,1016.00
2022-07-29T04:57:42.800Z,1032.00
2022-07-29T04:58:42.778Z,1036.00
2022-07-29T04:59:42.763Z,1036.00
2022-07-29T05:00:42.746Z,1032.00
2022-07-29T05:01:42.848Z,1036.00
2022-07-29T05:02:42.818Z,1036.00
2022-07-29T05:03:42.706Z,1036.00
2022-07-29T05:04:42.689Z,1028.00
2022-07-29T05:05:42.673Z,1024.00
2022-07-29T05:06:42.659Z,1016.00
2022-07-29T05:07:42.640Z,1016.00
2022-07-29T05:08:42.622Z,1032.00
2022-07-29T05:09:42.617Z,1044.00
2022-07-29T05:10:42.590Z,1060.00
2022-07-29T05:11:42.581Z,1080.00
2022-07-29T05:12:42.562Z,1092.00
2022-07-29T05:13:45.723Z,1108.00
2022-07-29T05:14:42.526Z,1124.00
2022-07-29T05:15:42.577Z,1140.00
2022-07-29T05:16:42.497Z,1152.00
2022-07-29T05:17:42.482Z,1152.00
2022-07-29T05:18:42.465Z,1152.00
2022-07-29T05:19:42.452Z,1148.00
2022-07-29T05:20:42.436Z,1148.00
2022-07-29T05:21:42.444Z,1152.00
2022-07-29T05:22:42.408Z,1160.00
2022-07-29T05:23:42.395Z,1176.00
2022-07-29T05:24:42.371Z,1192.00
2022-07-29T05:25:44.063Z,1212.00
2022-07-29T05:26:42.340Z,1236.00
2022-07-29T05:27:42.328Z,1272.00
2022-07-29T05:28:42.313Z,1312.00
2022-07-29T05:29:44.241Z,1368.00
2022-07-29T05:30:42.342Z,1428.00
2022-07-29T05:31:42.270Z,1460.00
2022-07-29T05:32:42.251Z,1460.00
2022-07-29T05:33:42.236Z,1500.00
2022-07-29T05:34:50.256Z,1484.00
2022-07-29T05:35:42.200Z,1468.00
2022-07-29T05:36:42.187Z,1468.00
2022-07-29T05:37:42.176Z,1496.00
2022-07-29T05:38:42.157Z,1544.00
2022-07-29T05:39:48.871Z,1592.00
2022-07-29T05:40:42.132Z,1632.00
2022-07-29T05:41:42.116Z,1656.00
2022-07-29T05:42:42.091Z,1652.00
2022-07-29T05:43:42.080Z,1640.00
2022-07-29T05:44:42.065Z,1624.00
2022-07-29T05:45:49.963Z,1620.00
2022-07-29T05:46:42.074Z,1608.00
2022-07-29T05:47:42.020Z,1592.00
2022-07-29T05:48:42.058Z,1592.00
2022-07-29T05:49:41.988Z,1592.00
2022-07-29T05:50:44.188Z,1592.00
2022-07-29T05:51:41.955Z,1600.00
2022-07-29T05:52:41.940Z,1620.00
2022-07-29T05:53:41.930Z,1660.00
2022-07-29T05:54:41.910Z,1696.00
2022-07-29T05:55:41.900Z,1720.00
2022-07-29T05:56:41.883Z,1716.00
2022-07-29T05:57:41.873Z,1720.00
2022-07-29T05:58:41.848Z,1736.00
2022-07-29T05:59:41.841Z,1712.00
2022-07-29T06:00:41.819Z,1648.00
2022-07-29T06:01:41.852Z,1552.00
2022-07-29T06:02:41.788Z,1444.00
2022-07-29T06:03:41.775Z,1344.00
2022-07-29T06:04:41.785Z,1312.00
2022-07-29T06:05:41.744Z,1316.00
2022-07-29T06:06:41.728Z,1328.00
2022-07-29T06:07:41.716Z,1364.00
2022-07-29T06:08:41.696Z,1428.00
2022-07-29T06:09:41.688Z,1512.00
2022-07-29T06:10:41.666Z,1628.00
2022-07-29T06:11:41.653Z,1764.00
2022-07-29T06:12:41.642Z,1888.00
2022-07-29T06:13:41.632Z,2016.00
2022-07-29T06:14:41.612Z,2120.00
2022-07-29T06:15:41.693Z,2236.00
2022-07-29T06:16:41.624Z,2404.00
2022-07-29T06:18:00.050Z,2600.00
2022-07-29T06:18:41.552Z,2784.00
2022-07-29T06:19:41.559Z,2948.00
2022-07-29T06:20:41.516Z,3080.00
2022-07-29T06:21:41.946Z,3184.00
2022-07-29T06:22:41.493Z,3204.00
2022-07-29T06:23:41.476Z,3148.00
2022-07-29T06:24:41.460Z,3128.00
2022-07-29T06:25:41.448Z,3112.00
2022-07-29T06:26:41.426Z,3084.00
2022-07-29T06:27:41.416Z,3008.00
2022-07-29T06:28:41.398Z,2876.00
2022-07-29T06:29:41.387Z,2724.00
2022-07-29T06:30:41.418Z,2708.00
2022-07-29T06:31:41.357Z,2692.00
2022-07-29T06:32:43.240Z,2700.00
2022-07-29T06:33:41.329Z,2664.00
2022-07-29T06:34:41.313Z,2684.00
2022-07-29T06:35:44.718Z,2768.00
2022-07-29T06:36:41.281Z,2864.00
2022-07-29T06:37:41.266Z,2936.00
2022-07-29T06:38:44.860Z,3032.00
2022-07-29T06:39:41.242Z,3120.00
2022-07-29T06:40:41.222Z,3208.00
2022-07-29T06:41:41.206Z,3220.00
2022-07-29T06:42:41.195Z,3160.00
2022-07-29T06:43:52.641Z,3076.00
2022-07-29T06:44:41.162Z,2984.00
2022-07-29T06:45:41.174Z,2860.00
2022-07-29T06:46:41.155Z,2716.00
2022-07-29T06:47:41.132Z,2576.00
2022-07-29T06:48:41.208Z,2464.00
2022-07-29T06:49:41.097Z,2396.00
2022-07-29T06:50:41.074Z,2364.00
2022-07-29T06:51:41.062Z,2372.00
2022-07-29T06:52:41.045Z,2396.00
2022-07-29T06:53:59.895Z,2428.00
2022-07-29T06:54:41.014Z,2472.00
2022-07-29T06:55:41.004Z,2516.00
2022-07-29T06:56:40.985Z,2592.00
2022-07-29T06:57:40.979Z,2684.00
2022-07-29T06:58:40.955Z,2788.00
2022-07-29T06:59:40.947Z,2872.00
2022-07-29T07:00:40.930Z,2972.00
2022-07-29T07:01:41.054Z,3084.00
2022-07-29T07:02:40.984Z,3188.00
2022-07-29T07:03:40.887Z,3300.00
2022-07-29T07:04:40.874Z,3360.00
2022-07-29T07:05:40.858Z,3424.00
2022-07-29T07:06:40.847Z,3452.00
2022-07-29T07:07:40.828Z,3468.00
2022-07-29T07:08:40.820Z,3480.00
2022-07-29T07:09:41.050Z,3528.00
2022-07-29T07:10:40.800Z,3644.00
2022-07-29T07:11:40.767Z,3820.00
2022-07-29T07:12:40.756Z,4104.00
2022-07-29T07:13:40.745Z,4456.00
2022-07-29T07:14:40.724Z,4840.00
2022-07-29T07:15:40.719Z,5296.00
2022-07-29T07:16:40.755Z,5836.00
2022-07-29T07:17:40.686Z,6416.00
2022-07-29T07:18:40.669Z,6976.00
2022-07-29T07:19:40.663Z,7408.00
2022-07-29T07:20:40.634Z,7720.00
2022-07-29T07:21:40.632Z,8032.00
2022-07-29T07:22:40.618Z,8344.00
2022-07-29T07:23:40.597Z,8712.00
2022-07-29T07:24:40.582Z,9000.00
2022-07-29T07:25:40.575Z,9344.00
2022-07-29T07:26:40.554Z,9380.00
2022-07-29T07:27:40.536Z,8792.00
2022-07-29T07:28:40.528Z,8412.00
2022-07-29T07:29:40.514Z,7960.00
2022-07-29T07:30:40.499Z,7648.00
2022-07-29T07:31:40.549Z,7432.00
2022-07-29T07:32:40.477Z,7260.00
2022-07-29T07:33:40.460Z,7076.00
2022-07-29T07:34:40.452Z,6840.00
2022-07-29T07:35:40.450Z,6592.00
2022-07-29T07:36:40.416Z,6360.00
2022-07-29T07:37:40.406Z,6160.00
2022-07-29T07:38:40.392Z,5992.00
2022-07-29T07:39:40.387Z,5892.00
2022-07-29T07:40:40.367Z,5780.00
2022-07-29T07:41:40.352Z,5576.00
2022-07-29T07:42:40.390Z,5328.00
2022-07-29T07:43:40.328Z,5008.00
2022-07-29T07:45:03.765Z,4800.00
2022-07-29T07:45:40.355Z,4612.00
2022-07-29T07:46:40.286Z,4508.00
2022-07-29T07:47:40.268Z,4436.00
2022-07-29T07:48:40.311Z,4308.00
2022-07-29T07:49:40.241Z,4256.00
2022-07-29T07:50:40.231Z,4228.00
2022-07-29T07:51:40.215Z,4244.00
2022-07-29T07:52:40.201Z,4396.00
2022-07-29T07:53:40.187Z,4620.00
2022-07-29T07:54:40.174Z,4780.00
2022-07-29T07:56:08.255Z,4848.00
2022-07-29T07:56:40.155Z,4884.00
2022-07-29T07:57:40.131Z,4840.00
2022-07-29T07:58:40.241Z,4664.00
2022-07-29T07:59:40.104Z,4460.00
2022-07-29T08:00:40.112Z,4272.00
2022-07-29T08:01:47.629Z,4236.00
2022-07-29T08:02:40.172Z,4256.00
2022-07-29T08:03:40.092Z,4292.00
2022-07-29T08:04:40.036Z,4348.00
2022-07-29T08:05:40.027Z,4420.00
2022-07-29T08:06:40.022Z,4428.00
2022-07-29T08:07:40.002Z,4408.00
2022-07-29T08:08:39.985Z,4356.00
2022-07-29T08:09:39.965Z,4276.00
2022-07-29T08:10:39.956Z,4152.00
2022-07-29T08:11:39.938Z,4168.00
2022-07-29T08:12:39.931Z,4240.00
2022-07-29T08:13:39.911Z,4372.00
2022-07-29T08:14:39.896Z,4440.00
2022-07-29T08:15:39.884Z,4460.00
2022-07-29T08:16:39.904Z,4508.00
2022-07-29T08:17:39.857Z,4576.00
2022-07-29T08:18:39.856Z,4640.00
2022-07-29T08:19:39.827Z,4716.00
2022-07-29T08:20:39.813Z,4680.00
2022-07-29T08:21:39.804Z,4656.00
2022-07-29T08:22:39.792Z,4568.00
2022-07-29T08:23:45.952Z,4512.00
2022-07-29T08:24:39.759Z,4556.00
2022-07-29T08:25:39.750Z,4700.00
2022-07-29T08:26:39.733Z,4804.00
2022-07-29T08:27:44.091Z,4916.00
2022-07-29T08:28:39.715Z,5028.00
2022-07-29T08:29:39.690Z,5088.00
2022-07-29T08:30:39.684Z,5132.00
2022-07-29T08:31:39.761Z,5056.00
2022-07-29T08:32:56.121Z,4864.00
2022-07-29T08:33:39.647Z,4544.00
2022-07-29T08:34:39.624Z,4244.00
2022-07-29T08:35:39.622Z,3984.00
2022-07-29T08:36:39.600Z,3884.00
2022-07-29T08:37:39.582Z,3884.00
2022-07-29T08:38:39.566Z,3948.00
2022-07-29T08:39:39.555Z,3972.00
2022-07-29T08:40:39.546Z,3780.00
2022-07-29T08:41:39.531Z,3548.00
2022-07-29T08:42:39.519Z,3548.00
2022-07-29T08:43:39.501Z,3652.00
2022-07-29T08:44:39.492Z,3820.00
2022-07-29T08:45:39.509Z,4120.00
2022-07-29T08:46:39.471Z,4420.00
2022-07-29T08:47:39.449Z,4656.00
2022-07-29T08:48:39.493Z,4616.00
2022-07-29T08:49:39.423Z,4684.00
2022-07-29T08:50:39.407Z,4808.00
2022-07-29T08:51:49.167Z,4980.00
2022-07-29T08:52:39.445Z,5356.00
2022-07-29T08:53:39.371Z,5432.00
2022-07-29T08:54:39.361Z,5160.00
2022-07-29T08:55:39.340Z,4832.00
2022-07-29T08:56:39.330Z,4548.00
2022-07-29T08:57:39.314Z,4300.00
2022-07-29T08:58:39.300Z,4068.00
2022-07-29T08:59:39.284Z,3912.00
2022-07-29T09:00:39.315Z,3812.00
2022-07-29T09:01:42.351Z,3796.00
2022-07-29T09:02:39.246Z,3852.00
2022-07-29T09:03:39.271Z,3992.00
2022-07-29T09:04:39.226Z,4204.00
2022-07-29T09:05:41.992Z,4480.00
2022-07-29T09:06:39.189Z,4468.00
2022-07-29T09:07:39.176Z,4416.00
2022-07-29T09:08:39.161Z,4352.00
2022-07-29T09:09:39.151Z,4172.00
2022-07-29T09:10:39.136Z,3996.00
2022-07-29T09:11:39.130Z,3804.00
2022-07-29T09:12:39.114Z,3696.00
2022-07-29T09:13:39.097Z,3640.00
2022-07-29T09:14:39.088Z,3540.00
2022-07-29T09:15:39.067Z,3452.00
2022-07-29T09:16:52.797Z,3400.00
2022-07-29T09:17:39.060Z,3292.00
2022-07-29T09:18:39.028Z,3180.00
2022-07-29T09:19:39.011Z,3056.00
2022-07-29T09:20:39.001Z,2924.00
2022-07-29T09:21:38.990Z,2808.00
2022-07-29T09:22:42.026Z,2704.00
2022-07-29T09:23:38.962Z,2644.00
2022-07-29T09:24:38.950Z,2584.00
2022-07-29T09:25:38.937Z,2560.00
2022-07-29T09:26:38.921Z,2596.00
2022-07-29T09:27:38.905Z,2628.00
2022-07-29T09:28:38.893Z,2716.00
2022-07-29T09:29:38.881Z,2780.00
2022-07-29T09:30:38.868Z,2820.00
2022-07-29T09:31:38.908Z,2892.00
2022-07-29T09:32:38.871Z,3056.00
2022-07-29T09:33:38.822Z,3248.00
2022-07-29T09:34:38.826Z,3456.00
2022-07-29T09:35:38.800Z,3580.00
2022-07-29T09:36:38.786Z,3644.00
2022-07-29T09:37:38.778Z,3708.00
2022-07-29T09:38:38.763Z,3780.00
2022-07-29T09:39:38.742Z,3896.00
2022-07-29T09:40:38.727Z,3992.00
2022-07-29T09:41:38.717Z,4096.00
2022-07-29T09:42:38.702Z,4216.00
2022-07-29T09:43:38.687Z,4360.00
2022-07-29T09:44:38.680Z,4476.00
2022-07-29T09:45:38.663Z,4512.00
2022-07-29T09:46:38.733Z,4524.00
2022-07-29T09:47:38.632Z,4548.00
2022-07-29T09:48:38.669Z,4564.00
2022-07-29T09:49:38.606Z,4584.00
2022-07-29T09:50:38.605Z,4556.00
2022-07-29T09:51:38.971Z,4492.00
2022-07-29T09:52:38.567Z,4388.00
2022-07-29T09:53:38.559Z,4264.00
2022-07-29T09:54:38.537Z,4148.00
2022-07-29T09:55:38.524Z,4072.00
2022-07-29T09:56:38.514Z,4008.00
2022-07-29T09:57:38.497Z,3980.00
2022-07-29T09:58:38.495Z,3960.00
2022-07-29T09:59:50.346Z,4008.00
2022-07-29T10:00:38.534Z,4164.00
2022-07-29T10:01:38.455Z,4444.00
2022-07-29T10:02:38.442Z,5644.00
2022-07-29T10:03:38.516Z,5772.00
2022-07-29T10:04:38.410Z,6036.00
2022-07-29T10:05:38.396Z,6004.00
2022-07-29T10:06:38.382Z,6556.00
2022-07-29T10:07:38.372Z,7440.00
2022-07-29T10:08:38.361Z,8284.00
2022-07-29T10:09:38.345Z,10240.00
2022-07-29T10:10:38.331Z,14560.00
2022-07-29T10:11:49.602Z,12780.00
2022-07-29T10:12:38.310Z,16096.00
2022-07-29T10:13:38.301Z,15424.00
2022-07-29T10:14:38.290Z,11036.00
2022-07-29T10:15:38.267Z,10000.00
2022-07-29T10:16:38.334Z,12872.00
2022-07-29T10:17:38.247Z,12780.00
2022-07-29T10:18:38.244Z,9604.00
2022-07-29T10:19:38.226Z,8452.00
2022-07-29T10:20:38.209Z,8024.00
2022-07-29T10:21:38.202Z,7960.00
2022-07-29T10:22:53.032Z,8004.00
2022-07-29T10:23:46.762Z,7976.00
2022-07-29T10:24:38.224Z,7800.00
2022-07-29T10:25:38.163Z,7364.00
2022-07-29T10:26:38.144Z,6784.00
2022-07-29T10:27:38.129Z,6308.00
2022-07-29T10:28:38.125Z,5848.00
2022-07-29T10:29:38.110Z,5632.00
2022-07-29T10:30:38.101Z,5504.00
2022-07-29T10:31:38.214Z,5488.00
2022-07-29T10:32:38.084Z,5416.00
2022-07-29T10:33:38.087Z,5288.00
2022-07-29T10:34:38.075Z,5184.00
2022-07-29T10:35:38.044Z,5072.00
2022-07-29T10:36:38.032Z,5004.00
2022-07-29T10:37:38.015Z,4896.00
2022-07-29T10:38:38.564Z,4688.00
2022-07-29T10:39:44.548Z,4420.00
2022-07-29T10:40:37.983Z,4216.00
2022-07-29T10:41:44.300Z,4008.00
2022-07-29T10:42:37.961Z,3796.00
2022-07-29T10:43:37.957Z,3588.00
2022-07-29T10:44:37.943Z,3448.00
2022-07-29T10:45:37.932Z,3332.00
2022-07-29T10:46:38.014Z,3200.00
2022-07-29T10:47:37.907Z,3084.00
2022-07-29T10:48:37.935Z,3024.00
2022-07-29T10:49:37.892Z,2984.00
2022-07-29T10:50:37.869Z,2932.00
2022-07-29T10:51:37.843Z,2868.00
2022-07-29T10:52:38.101Z,2828.00
2022-07-29T10:53:37.821Z,2796.00
2022-07-29T10:54:37.808Z,2764.00
2022-07-29T10:55:37.867Z,2720.00
2022-07-29T10:56:37.794Z,2684.00
2022-07-29T10:57:52.719Z,2636.00
2022-07-29T10:58:37.758Z,2600.00
2022-07-29T10:59:37.743Z,2528.00
2022-07-29T11:00:37.731Z,2444.00
2022-07-29T11:01:39.374Z,2340.00
2022-07-29T11:02:41.568Z,2260.00
2022-07-29T11:03:37.750Z,2188.00
2022-07-29T11:04:37.681Z,2136.00
2022-07-29T11:05:40.734Z,2124.00
2022-07-29T11:06:37.648Z,2132.00
2022-07-29T11:07:46.067Z,2136.00
2022-07-29T11:08:37.623Z,2156.00
2022-07-29T11:09:38.477Z,2168.00
2022-07-29T11:10:37.596Z,2180.00
2022-07-29T11:11:37.581Z,2180.00
2022-07-29T11:12:37.567Z,2208.00
2022-07-29T11:13:41.322Z,2208.00
2022-07-29T11:14:37.539Z,2232.00
2022-07-29T11:15:37.534Z,2264.00
2022-07-29T11:16:37.513Z,2296.00
2022-07-29T11:17:52.075Z,2324.00
2022-07-29T11:18:37.493Z,2336.00
2022-07-29T11:19:40.265Z,2328.00
2022-07-29T11:20:37.927Z,2304.00
2022-07-29T11:21:53.466Z,2272.00
2022-07-29T11:22:37.438Z,2252.00
2022-07-29T11:23:37.596Z,2192.00
2022-07-29T11:24:37.407Z,2148.00
2022-07-29T11:25:50.866Z,2128.00
2022-07-29T11:26:37.381Z,2096.00
2022-07-29T11:27:37.365Z,2084.00
2022-07-29T11:28:37.350Z,2040.00
2022-07-29T11:29:40.046Z,2000.00
2022-07-29T11:30:37.323Z,1964.00
2022-07-29T11:31:37.308Z,1920.00
2022-07-29T11:32:37.301Z,1876.00
2022-07-29T11:33:54.885Z,1828.00
2022-07-29T11:34:37.267Z,1788.00
2022-07-29T11:35:39.910Z,1756.00
2022-07-29T11:36:37.241Z,1724.00
2022-07-29T11:37:45.729Z,1704.00
2022-07-29T11:38:37.215Z,1684.00
2022-07-29T11:39:37.698Z,1656.00
2022-07-29T11:40:37.182Z,1636.00
2022-07-29T11:41:37.164Z,1620.00
2022-07-29T11:42:37.164Z,1604.00
2022-07-29T11:43:37.144Z,1576.00
2022-07-29T11:44:37.128Z,1544.00
2022-07-29T11:45:42.496Z,1520.00
2022-07-29T11:46:37.103Z,1480.00
2022-07-29T11:47:38.238Z,1444.00
2022-07-29T11:48:37.122Z,1416.00
2022-07-29T11:49:37.106Z,1384.00
2022-07-29T11:50:37.042Z,1404.00
2022-07-29T11:51:37.025Z,1400.00
2022-07-29T11:52:37.015Z,1356.00
2022-07-29T11:53:36.997Z,1308.00
2022-07-29T11:54:38.689Z,1284.00
2022-07-29T11:55:36.971Z,1260.00
2022-07-29T11:56:36.960Z,1260.00
2022-07-29T11:57:37.171Z,1288.00
2022-07-29T11:58:36.926Z,1328.00
2022-07-29T11:59:36.916Z,1384.00
2022-07-29T12:00:36.905Z,1452.00
2022-07-29T12:01:36.881Z,1532.00
2022-07-29T12:02:38.308Z,1592.00
2022-07-29T12:03:37.309Z,1640.00
2022-07-29T12:04:36.848Z,1680.00
2022-07-29T12:05:37.174Z,1700.00
2022-07-29T12:06:36.812Z,1704.00
2022-07-29T12:07:36.800Z,1708.00
2022-07-29T12:08:36.785Z,1664.00
2022-07-29T12:09:40.322Z,1632.00
2022-07-29T12:10:36.753Z,1624.00
2022-07-29T12:11:36.744Z,1596.00
2022-07-29T12:12:36.727Z,1560.00
2022-07-29T12:13:37.441Z,1512.00
2022-07-29T12:14:36.694Z,1504.00
2022-07-29T12:15:46.159Z,1500.00
2022-07-29T12:16:36.706Z,1524.00
2022-07-29T12:17:36.726Z,1536.00
2022-07-29T12:18:36.636Z,1508.00
2022-07-29T12:19:36.626Z,1476.00
2022-07-29T12:20:36.608Z,1448.00
2022-07-29T12:21:36.592Z,1440.00
2022-07-29T12:22:36.576Z,1416.00
2022-07-29T12:23:36.566Z,1392.00
2022-07-29T12:24:36.553Z,1404.00
2022-07-29T12:25:36.534Z,1436.00
2022-07-29T12:26:36.520Z,1444.00
2022-07-29T12:27:36.505Z,1396.00
2022-07-29T12:28:36.492Z,1356.00